createdAt,value
2023-03-07T00:02:07.003Z,18.9
2023-03-07T00:07:59.588Z,18.4
2023-03-07T00:13:21.779Z,19.5
2023-03-07T00:19:14.816Z,21.2
2023-03-07T00:24:52.106Z,19.9
2023-03-07T00:30:29.633Z,18.8
2023-03-07T00:36:21.847Z,18.3
2023-03-07T00:42:14.382Z,19.9
2023-03-07T00:47:51.313Z,21.4
2023-03-07T00:53:28.253Z,19.4
2023-03-07T01:04:27.851Z,18.3
2023-03-07T01:10:05.230Z,19.4
2023-03-07T01:15:42.656Z,21.3
2023-03-07T01:21:04.317Z,19.8
2023-03-07T01:26:57.286Z,18.8
2023-03-07T01:32:34.766Z,18.4
2023-03-07T01:38:27.296Z,19.6
2023-03-07T01:44:20.347Z,21.5
2023-03-07T01:49:57.302Z,19.4
2023-03-07T01:55:18.442Z,18.6
2023-03-07T02:00:56.274Z,18.2
2023-03-07T02:06:48.927Z,20.8
2023-03-07T02:12:25.008Z,20.4
2023-03-07T02:18:18.090Z,18.9
2023-03-07T02:23:54.622Z,18.4
2023-03-07T02:29:47.334Z,19.7
2023-03-07T02:35:39.849Z,21.4
2023-03-07T02:41:16.720Z,19.3
2023-03-07T02:47:08.597Z,18.6
2023-03-07T02:52:46.135Z,18.6
2023-03-07T02:58:07.234Z,21.2
2023-03-07T03:03:29.592Z,19.9
2023-03-07T03:09:22.497Z,18.9
2023-03-07T03:15:16.629Z,18.4
2023-03-07T03:21:09.623Z,19.8
2023-03-07T03:27:03.321Z,21.4
2023-03-07T03:32:55.912Z,19.3
2023-03-07T03:38:48.530Z,18.6
2023-03-07T03:44:42.087Z,18.3
2023-03-07T03:50:35.148Z,20.4
2023-03-07T03:56:27.305Z,20.8
2023-03-07T04:02:20.216Z,19.1
2023-03-07T04:08:13.074Z,18.5
2023-03-07T04:14:05.444Z,18.1
2023-03-07T04:19:58.989Z,20.9
2023-03-07T04:25:35.609Z,20.1
2023-03-07T04:31:13.171Z,18.9
2023-03-07T04:37:06.309Z,18.4
2023-03-07T04:42:42.882Z,18.9
2023-03-07T04:53:46.063Z,19.9
2023-03-07T04:59:08.108Z,18.8
2023-03-07T05:05:02.460Z,18.4
2023-03-07T05:10:57.286Z,19.9
2023-03-07T05:16:49.806Z,21.4
2023-03-07T05:22:42.410Z,19.3
2023-03-07T05:28:34.653Z,18.6
2023-03-07T05:34:27.198Z,18.2
2023-03-07T05:40:04.252Z,20.9
2023-03-07T05:45:57.700Z,20.3
2023-03-07T05:51:35.524Z,18.9
2023-03-07T05:57:27.894Z,18.4
2023-03-07T06:03:22.043Z,19.1
2023-03-07T06:09:17.229Z,21.3
2023-03-07T06:15:10.834Z,19.6
2023-03-07T06:26:42.006Z,18.3
2023-03-07T06:32:35.865Z,20.4
2023-03-07T06:38:14.186Z,20.9
2023-03-07T06:43:51.172Z,19.1
2023-03-07T06:49:47.091Z,18.5
2023-03-07T06:55:52.162Z,18.4
2023-03-07T07:01:46.981Z,21.2
2023-03-07T07:07:39.273Z,19.8
2023-03-07T07:18:37.140Z,18.3
2023-03-07T07:24:30.300Z,20.3
2023-03-07T07:30:24.043Z,19.4
2023-03-07T07:36:16.873Z,18.8
2023-03-07T07:42:09.786Z,18.4
2023-03-07T07:48:01.866Z,18.1
2023-03-07T07:53:53.929Z,17.8
2023-03-07T07:59:46.353Z,17.6
2023-03-07T08:05:44.041Z,20.7
2023-03-07T08:11:36.035Z,19.4
2023-03-07T08:17:31.973Z,18.8
2023-03-07T08:23:25.205Z,18.4
2023-03-07T08:29:28.498Z,18.1
2023-03-07T08:35:21.790Z,17.9
2023-03-07T08:40:59.740Z,17.8
2023-03-07T08:46:52.955Z,20.9
2023-03-07T08:52:46.656Z,19.4
2023-03-07T08:58:39.971Z,18.8
2023-03-07T09:04:33.356Z,18.4
2023-03-07T09:10:26.084Z,18.1
2023-03-07T09:16:27.974Z,17.8
2023-03-07T09:22:23.139Z,18.1
2023-03-07T09:28:15.863Z,21.3
2023-03-07T09:33:53.252Z,19.2
2023-03-07T09:39:48.055Z,18.4
2023-03-07T09:45:40.964Z,18.1
2023-03-07T09:57:21.640Z,19.4
2023-03-07T10:03:30.295Z,18.6
2023-03-07T10:09:25.805Z,18.3
2023-03-07T10:15:03.468Z,17.9
2023-03-07T10:26:35.486Z,19.4
2023-03-07T10:32:29.166Z,18.5
2023-03-07T10:38:48.051Z,18.1
2023-03-07T10:44:41.315Z,21
2023-03-07T10:51:06.694Z,19.8
2023-03-07T10:56:46.950Z,18.9
2023-03-07T11:02:40.349Z,18.6
2023-03-07T11:08:41.039Z,18.3
2023-03-07T11:14:18.961Z,18
2023-03-07T11:19:50.018Z,17.8
2023-03-07T11:25:42.145Z,19.9
2023-03-07T11:31:20.194Z,20.7
2023-03-07T11:37:27.554Z,19.2
2023-03-07T11:43:19.343Z,18.6
2023-03-07T11:48:57.889Z,18.4
2023-03-07T11:54:50.934Z,18.1
2023-03-07T12:00:43.709Z,20.9
2023-03-07T12:06:21.079Z,19.9
2023-03-07T12:12:14.382Z,18.8
2023-03-07T12:18:07.787Z,18.3
2023-03-07T12:24:00.108Z,21.5
2023-03-07T12:29:39.473Z,19.4
2023-03-07T12:35:34.091Z,18.6
2023-03-07T12:41:12.423Z,18.3
2023-03-07T12:46:35.579Z,21.6
2023-03-07T12:52:35.894Z,19.3
2023-03-07T12:58:12.550Z,18.6
2023-03-07T13:03:50.776Z,18.3
2023-03-07T13:09:43.793Z,21.6
2023-03-07T13:15:37.855Z,19.4
2023-03-07T13:21:31.162Z,18.8
2023-03-07T13:27:08.692Z,18.4
2023-03-07T13:33:02.145Z,18.1
2023-03-07T13:38:39.739Z,17.9
2023-03-07T13:44:35.307Z,17.6
2023-03-07T13:50:26.992Z,17.4
2023-03-07T13:56:20.027Z,17.3
2023-03-07T14:02:15.698Z,17.1
2023-03-07T14:08:15.574Z,16.9
2023-03-07T14:14:15.404Z,16.7
2023-03-07T14:20:08.594Z,16.6
2023-03-07T14:26:01.478Z,16.4
2023-03-07T14:31:40.101Z,16.3
2023-03-07T14:37:35.688Z,16.2
2023-03-07T14:43:28.413Z,16.1
2023-03-07T14:49:21.906Z,15.9
2023-03-07T14:55:23.418Z,15.9
2023-03-07T15:01:25.380Z,15.8
2023-03-07T15:07:19.665Z,15.8
2023-03-07T15:13:13.893Z,15.6
2023-03-07T15:18:36.742Z,15.6
2023-03-07T15:24:30.370Z,15.4
2023-03-07T15:30:07.413Z,15.4
2023-03-07T15:35:59.609Z,15.4
2023-03-07T15:41:38.243Z,15.3
2023-03-07T15:47:15.664Z,15.3
2023-03-07T15:53:08.367Z,15.2
2023-03-07T15:59:01.192Z,15.1
2023-03-07T16:04:39.392Z,15.1
2023-03-07T16:09:45.469Z,15.1
2023-03-07T16:15:22.876Z,15
2023-03-07T16:21:15.322Z,15
2023-03-07T16:26:53.984Z,14.9
2023-03-07T16:32:47.442Z,14.9
2023-03-07T16:37:54.426Z,14.9
2023-03-07T16:43:46.607Z,14.9
2023-03-07T16:49:40.490Z,14.9
2023-03-07T16:55:25.850Z,14.8
2023-03-07T17:01:19.081Z,14.8
2023-03-07T17:07:04.212Z,14.8
2023-03-07T17:12:57.819Z,14.8
2023-03-07T17:18:50.037Z,14.8
2023-03-07T17:24:43.239Z,14.7
2023-03-07T17:30:36.559Z,14.7
2023-03-07T17:36:29.328Z,14.7
2023-03-07T17:42:22.576Z,14.7
2023-03-07T17:48:15.460Z,14.6
2023-03-07T17:54:08.396Z,14.6
2023-03-07T18:00:01.400Z,14.6
2023-03-07T18:05:57.625Z,14.6
2023-03-07T18:12:03.436Z,14.6
2023-03-07T18:17:48.086Z,14.6
2023-03-07T18:23:37.004Z,14.6
2023-03-07T18:29:16.482Z,14.5
2023-03-07T18:35:10.092Z,14.5
2023-03-07T18:41:03.975Z,14.5
2023-03-07T18:46:56.793Z,14.5
2023-03-07T18:52:50.030Z,14.5
2023-03-07T18:58:28.135Z,14.5
2023-03-07T19:04:21.340Z,14.5
2023-03-07T19:10:01.465Z,14.4
2023-03-07T19:15:39.287Z,14.4
2023-03-07T19:21:31.345Z,14.4
2023-03-07T19:27:24.239Z,14.4
2023-03-07T19:33:01.944Z,14.4
2023-03-07T19:38:40.055Z,14.4
2023-03-07T19:44:32.684Z,14.4
2023-03-07T19:50:25.899Z,14.4
2023-03-07T19:56:17.790Z,14.4
2023-03-07T20:02:11.183Z,14.4
2023-03-07T20:08:03.634Z,18.4
2023-03-07T20:14:12.703Z,20.9
2023-03-07T20:20:05.843Z,20.5
2023-03-07T20:25:43.854Z,20.5
2023-03-07T20:31:36.682Z,20.6
2023-03-07T20:37:30.994Z,19.1
2023-03-07T20:43:24.313Z,21.4
2023-03-07T20:49:18.206Z,19.6
2023-03-07T20:55:11.866Z,18.9
2023-03-07T21:01:04.785Z,18.6
2023-03-07T21:06:41.834Z,18.3
2023-03-07T21:12:07.137Z,18
2023-03-07T21:17:44.459Z,19.1
2023-03-07T21:23:06.477Z,21.1
2023-03-07T21:28:59.180Z,20.2
2023-03-07T21:34:36.328Z,19.1
2023-03-07T21:45:50.780Z,18.4
2023-03-07T21:51:43.758Z,18.2
2023-03-07T21:57:35.213Z,17.9
2023-03-07T22:03:12.628Z,20.6
2023-03-07T22:08:49.407Z,21
2023-03-07T22:14:26.361Z,19.3
2023-03-07T22:20:04.247Z,21.3
2023-03-07T22:25:41.936Z,21.4
2023-03-07T22:31:04.167Z,19.4
2023-03-07T22:36:41.821Z,18.8
2023-03-07T22:42:03.431Z,21.2
2023-03-07T22:47:39.900Z,21.4
2023-03-07T22:52:46.686Z,19.3
2023-03-07T22:58:39.221Z,18.8
2023-03-07T23:04:16.636Z,20.5
2023-03-07T23:10:09.884Z,21.8
2023-03-07T23:15:47.990Z,19.7
2023-03-07T23:21:28.613Z,18.8
2023-03-07T23:27:22.782Z,18.9
2023-03-07T23:33:15.688Z,21.3
2023-03-07T23:39:09.047Z,20.5
2023-03-07T23:45:02.740Z,19.1
2023-03-07T23:50:27.187Z,18.6
2023-03-07T23:56:04.434Z,20.2
